Arlington, WI

12:51 AM CDT on August 30, 2015 (GMT -0500)
WX9TRS - West Acker Pkwy | | Change Station
CLOSE
Current Station
Personal Weather Station
Location: DeForest, WI
Elevation: 945 ft
Nearby Weather Stations

Elev 945 ft 43.24 °N, 89.36 °W | Updated 27 seconds ago

Overcast
Overcast
63.7 °F
Feels Like 63.7 °F
N
0.0
Wind Variable Wind from East
Gusts 0.0 mph

Today
High -- | Low -- °F
--% Chance of Precip.
Yesterday
High -- | Low -- °F
Precip. -- in
6:19 AM 7:36 PM
Full, 100% visible
Pressure 30.05 in
Visibility 6.0 miles
Clouds Overcast 2600 ft
Dew Point 62 °F
Humidity 94%
Rainfall 0.00 in
Snow Depth Not available.
UV 0 out of 12
Pollen 4.60 out of 12
Air Quality Not available.
Flu Activity Not available.
METAR KMSN 300453Z AUTO 36003KT 6SM BR OVC026 18/17 A3005 RMK AO2 SLP174 T01780167
Pressure 30.05 in
Visibility 6.0 miles
Clouds Overcast 2600 ft
Dew Point 62 °F
Humidity 94%
Rainfall 0.00 in
Snow Depth Not available.
UV 0 out of 12
Pollen 4.60 out of 12
Air Quality Not available.
Flu Activity Not available.
METAR KMSN 300453Z AUTO 36003KT 6SM BR OVC026 18/17 A3005 RMK AO2 SLP174 T01780167

10-Day Weather Forecast

×

Almanac

Astronomy

Aug. 30, 2015 Rise Set
Actual Time
Civil Twilight
Nautical Twilight
Astronomical Twilight
Moon
Length of Visible Light
Length of Day
Tomorrow will be .
, % of the Moon is Illuminated

Today's Extremes

State Highs State Lows

Community

WunderPhotos

Upload Photos

1,850,896 photos uploaded!

WunderBlogs® & News

Nearby

Air Quality

  Air Quality AQ Index Pollutant
Not available.

Snow Depth

Station Depth Elevation

Earthquake Activity

City Distance Mag. Time & Date
Minimum magnitude displayed is 2.5.

Coastal Water Temperatures

Place Temperature

Stations

Nearby Weather Stations

Station Location Temp. Windchill Dew Point Humidity Wind Precip. Elev Updated Type